Time;durP1;ratioP1;P1;durP2;ratioP2;P2;SDS_P1;SDS_P2;PMS_P1;PMS_P2;Temp;Humidity;BMP_temperature;BMP_pressure;BME280_temperature;BME280_humidity;BME280_pressure;Samples;Min_cycle;Max_cycle;Signal;HPM_P1;HPM_P2
2021/09/03 00:01:21;;;;;;;11.43;6.43;;;16.10;99.90;;;;;;5062463;28;20493;-71
2021/09/03 00:03:48;;;;;;;11.07;7.67;;;16.10;99.90;;;;;;5066882;28;20541;-70
2021/09/03 00:06:15;;;;;;;13.87;7.70;;;16.10;99.90;;;;;;5062087;28;20511;-71
2021/09/03 00:08:42;;;;;;;9.60;6.10;;;16.10;99.90;;;;;;5067131;28;20478;-70
2021/09/03 00:11:10;;;;;;;9.53;6.57;;;15.90;99.90;;;;;;5066745;28;20521;-69
2021/09/03 00:13:37;;;;;;;13.80;6.27;;;15.90;99.90;;;;;;5062315;28;20914;-70
2021/09/03 00:16:06;;;;;;;8.00;6.20;;;15.90;99.90;;;;;;5055925;28;20573;-70
2021/09/03 00:18:32;;;;;;;12.20;7.03;;;15.80;99.90;;;;;;5062928;28;20457;-72
2021/09/03 00:20:59;;;;;;;9.60;6.93;;;15.80;99.90;;;;;;5056642;28;20442;-70
2021/09/03 00:23:26;;;;;;;11.33;7.00;;;15.90;99.90;;;;;;5064156;28;20459;-71
2021/09/03 00:25:53;;;;;;;11.00;6.33;;;15.90;99.90;;;;;;5059882;28;20577;-71
2021/09/03 00:28:20;;;;;;;11.60;7.80;;;15.80;99.90;;;;;;5054930;28;20978;-68
2021/09/03 00:30:47;;;;;;;9.37;6.30;;;15.60;99.90;;;;;;5066711;28;20473;-70
2021/09/03 00:33:16;;;;;;;10.03;6.50;;;15.60;99.90;;;;;;5062584;28;20559;-70
2021/09/03 00:35:43;;;;;;;7.67;6.10;;;15.50;99.90;;;;;;5062951;28;20867;-70
2021/09/03 00:38:10;;;;;;;11.90;6.33;;;15.50;99.90;;;;;;5066706;28;20443;-69
2021/09/03 00:40:36;;;;;;;9.70;6.70;;;15.50;99.90;;;;;;5069533;28;20546;-69
2021/09/03 00:43:04;;;;;;;11.23;6.93;;;15.50;99.90;;;;;;5063442;28;20931;-70
2021/09/03 00:45:31;;;;;;;13.20;7.37;;;15.50;99.90;;;;;;5064358;28;20571;-70
2021/09/03 00:47:58;;;;;;;11.83;6.67;;;15.50;99.90;;;;;;5066595;28;20510;-70
2021/09/03 00:50:26;;;;;;;10.27;5.50;;;15.40;99.90;;;;;;5065302;28;20450;-68
2021/09/03 00:52:53;;;;;;;9.63;6.07;;;15.40;99.90;;;;;;5067849;28;20417;-69
2021/09/03 00:55:20;;;;;;;9.10;6.63;;;15.40;99.90;;;;;;5056298;28;20553;-70
2021/09/03 00:57:48;;;;;;;13.97;6.70;;;15.50;99.90;;;;;;5063452;28;20589;-69
2021/09/03 01:00:16;;;;;;;14.70;7.43;;;15.40;99.90;;;;;;5062825;28;20441;-69
2021/09/03 01:02:43;;;;;;;13.93;7.77;;;15.40;99.90;;;;;;5065755;28;20836;-70
2021/09/03 01:05:10;;;;;;;10.07;5.80;;;15.40;99.90;;;;;;5066805;28;20478;-70
2021/09/03 01:07:39;;;;;;;8.70;5.50;;;15.40;99.90;;;;;;5066886;28;20478;-70
2021/09/03 01:10:08;;;;;;;6.67;5.03;;;15.40;99.90;;;;;;5064521;28;20487;-70
2021/09/03 01:12:35;;;;;;;13.50;6.30;;;15.30;99.90;;;;;;5064210;28;20447;-68
2021/09/03 01:15:02;;;;;;;6.57;5.60;;;15.30;99.90;;;;;;5060172;28;20517;-67
2021/09/03 01:17:30;;;;;;;9.80;6.50;;;15.20;99.90;;;;;;5051266;28;20880;-69
2021/09/03 01:19:56;;;;;;;10.47;7.07;;;15.20;99.90;;;;;;5064719;28;20466;-68
2021/09/03 01:22:25;;;;;;;9.23;6.73;;;15.10;99.90;;;;;;5061562;28;20897;-70
2021/09/03 01:24:52;;;;;;;10.60;6.90;;;15.20;99.90;;;;;;5053119;28;20480;-70
2021/09/03 01:27:19;;;;;;;13.10;7.50;;;15.10;99.90;;;;;;5061156;28;20481;-70
2021/09/03 01:29:45;;;;;;;12.53;7.53;;;15.10;99.90;;;;;;5061571;28;20430;-69
2021/09/03 01:32:12;;;;;;;24.97;7.33;;;14.90;99.90;;;;;;5065521;28;21039;-70
2021/09/03 01:34:39;;;;;;;12.10;7.43;;;14.80;99.90;;;;;;5057202;28;20524;-70
2021/09/03 01:37:06;;;;;;;9.60;5.83;;;14.90;99.90;;;;;;5056258;28;20562;-70
2021/09/03 01:39:34;;;;;;;10.70;6.70;;;14.90;99.90;;;;;;5058554;28;20541;-70
2021/09/03 01:42:01;;;;;;;11.93;6.20;;;15.00;99.90;;;;;;5065623;28;20538;-70
2021/09/03 01:44:28;;;;;;;11.17;7.43;;;14.90;99.90;;;;;;5053024;28;20919;-70
2021/09/03 01:46:56;;;;;;;8.93;7.73;;;14.90;99.90;;;;;;5062659;28;20531;-70
2021/09/03 01:49:22;;;;;;;12.53;7.50;;;14.80;99.90;;;;;;5059155;28;20443;-70
2021/09/03 01:51:50;;;;;;;8.67;6.37;;;14.80;99.90;;;;;;5059657;28;20541;-70
2021/09/03 01:54:17;;;;;;;11.63;7.13;;;14.70;99.90;;;;;;5059211;28;20570;-69
2021/09/03 01:56:45;;;;;;;9.67;6.83;;;14.70;99.90;;;;;;5059588;28;20565;-70
2021/09/03 01:59:13;;;;;;;11.20;6.40;;;14.60;99.90;;;;;;5058280;28;20958;-70
2021/09/03 02:01:40;;;;;;;12.40;7.47;;;14.60;99.90;;;;;;5059762;28;20446;-70
2021/09/03 02:04:06;;;;;;;10.13;6.53;;;14.60;99.90;;;;;;5059030;28;20946;-68
2021/09/03 02:06:34;;;;;;;7.47;5.23;;;14.60;99.90;;;;;;5051416;28;20553;-69
2021/09/03 02:09:00;;;;;;;11.60;6.03;;;14.70;99.90;;;;;;5067837;28;20482;-70
2021/09/03 02:11:27;;;;;;;13.77;6.40;;;14.70;99.90;;;;;;5066188;28;20904;-69
2021/09/03 02:13:56;;;;;;;16.60;7.97;;;14.70;99.90;;;;;;5060893;28;20547;-69
2021/09/03 02:16:23;;;;;;;9.27;6.07;;;14.60;99.90;;;;;;5059847;28;20483;-70
2021/09/03 02:18:50;;;;;;;8.40;7.13;;;14.60;99.90;;;;;;5064694;28;20541;-69
2021/09/03 02:21:17;;;;;;;12.77;6.90;;;14.60;99.90;;;;;;5058903;28;20523;-69
2021/09/03 02:23:44;;;;;;;10.60;6.13;;;14.50;99.90;;;;;;5061645;28;20591;-70
2021/09/03 02:26:11;;;;;;;9.47;7.00;;;14.60;99.90;;;;;;5058699;28;20557;-69
2021/09/03 02:28:38;;;;;;;9.10;6.03;;;14.50;99.90;;;;;;5052866;28;20478;-67
2021/09/03 02:31:06;;;;;;;9.40;6.50;;;14.50;99.90;;;;;;5061003;28;20557;-69
2021/09/03 02:33:33;;;;;;;7.43;4.87;;;14.60;99.90;;;;;;5067295;28;20465;-69
2021/09/03 02:36:00;;;;;;;11.23;6.80;;;14.50;99.90;;;;;;5055196;28;20863;-70
2021/09/03 02:38:27;;;;;;;9.80;6.47;;;14.50;99.90;;;;;;5057197;28;20498;-69
2021/09/03 02:40:54;;;;;;;6.53;5.33;;;14.50;99.90;;;;;;5064288;28;20537;-68
2021/09/03 02:43:21;;;;;;;13.43;7.13;;;14.50;99.90;;;;;;5055669;28;20545;-69
2021/09/03 02:45:48;;;;;;;11.37;6.87;;;14.40;99.90;;;;;;5048207;28;20525;-70
2021/09/03 02:48:16;;;;;;;9.90;5.80;;;14.50;99.90;;;;;;5057306;28;20485;-69
2021/09/03 02:50:44;;;;;;;10.50;6.17;;;14.40;99.90;;;;;;5060255;28;21003;-68
2021/09/03 02:53:10;;;;;;;8.67;5.60;;;14.30;99.90;;;;;;5062078;28;20538;-68
2021/09/03 02:55:37;;;;;;;18.93;8.57;;;14.30;99.90;;;;;;5064484;28;20588;-70
2021/09/03 02:58:04;;;;;;;11.60;6.80;;;14.30;99.90;;;;;;5061286;28;20927;-69
2021/09/03 03:00:33;;;;;;;11.37;7.80;;;14.30;99.90;;;;;;5057982;28;20437;-69
2021/09/03 03:03:00;;;;;;;14.17;6.60;;;14.30;99.90;;;;;;5055669;28;20534;-68
2021/09/03 03:05:29;;;;;;;12.63;5.17;;;14.20;99.90;;;;;;5051551;28;20552;-69
2021/09/03 03:07:55;;;;;;;11.43;6.40;;;14.10;99.90;;;;;;5049073;28;20467;-69
2021/09/03 03:10:22;;;;;;;14.47;7.53;;;14.10;99.90;;;;;;5054323;28;20508;-69
2021/09/03 03:12:53;;;;;;;12.00;6.97;;;14.20;99.90;;;;;;5056908;28;20487;-68
2021/09/03 03:15:20;;;;;;;10.17;6.57;;;14.20;99.90;;;;;;5058685;28;20489;-69
2021/09/03 03:17:47;;;;;;;10.60;6.77;;;14.10;99.90;;;;;;5058681;28;20465;-69
2021/09/03 03:20:16;;;;;;;16.63;7.10;;;14.20;99.90;;;;;;5057584;28;21027;-69
2021/09/03 03:22:44;;;;;;;12.93;6.60;;;14.20;99.90;;;;;;5048561;28;20470;-69
2021/09/03 03:25:12;;;;;;;13.50;7.20;;;14.10;99.90;;;;;;5053124;28;20577;-69
2021/09/03 03:27:39;;;;;;;9.43;7.13;;;14.10;99.90;;;;;;5056971;28;20463;-69
2021/09/03 03:30:07;;;;;;;7.57;5.57;;;14.10;99.90;;;;;;5054556;28;20600;-70
2021/09/03 03:32:34;;;;;;;8.57;5.93;;;14.10;99.90;;;;;;5058002;28;21045;-70
2021/09/03 03:35:01;;;;;;;11.37;7.80;;;14.00;99.90;;;;;;5055095;28;20561;-70
2021/09/03 03:37:28;;;;;;;8.97;6.07;;;13.90;99.90;;;;;;5062025;28;20578;-69
2021/09/03 03:39:57;;;;;;;8.40;5.80;;;13.90;99.90;;;;;;5071448;28;20455;-69
2021/09/03 03:42:23;;;;;;;8.43;6.20;;;13.90;99.90;;;;;;5053082;28;20547;-70
2021/09/03 03:44:50;;;;;;;11.80;6.50;;;13.80;99.90;;;;;;5052445;28;20899;-69
2021/09/03 03:47:17;;;;;;;13.50;6.50;;;13.80;99.90;;;;;;5056667;28;20545;-70
2021/09/03 03:49:44;;;;;;;9.30;7.43;;;13.90;99.90;;;;;;5070191;28;20568;-70
2021/09/03 03:52:11;;;;;;;11.47;6.97;;;13.90;99.90;;;;;;5065216;28;20474;-69
2021/09/03 03:54:38;;;;;;;9.60;6.10;;;14.00;99.90;;;;;;5056047;28;20466;-68
2021/09/03 03:57:06;;;;;;;12.67;7.50;;;14.00;99.90;;;;;;5057614;28;20965;-70
2021/09/03 03:59:33;;;;;;;8.57;6.13;;;13.90;99.90;;;;;;5058130;28;20994;-70
2021/09/03 04:02:00;;;;;;;11.77;6.97;;;13.90;99.90;;;;;;5057596;28;21331;-68
2021/09/03 04:04:27;;;;;;;10.63;6.40;;;13.90;99.90;;;;;;5058052;28;20494;-71
2021/09/03 04:06:54;;;;;;;12.53;6.50;;;13.90;99.90;;;;;;5055827;28;20590;-69
2021/09/03 04:09:21;;;;;;;10.60;7.83;;;13.80;99.90;;;;;;5053428;28;20494;-69
2021/09/03 04:11:49;;;;;;;9.53;6.00;;;13.90;99.90;;;;;;5061601;28;20530;-69
2021/09/03 04:14:18;;;;;;;10.40;6.80;;;13.80;99.90;;;;;;5058817;28;21068;-70
2021/09/03 04:16:46;;;;;;;16.60;8.10;;;13.80;99.90;;;;;;5061591;28;20489;-69
2021/09/03 04:19:13;;;;;;;20.30;7.57;;;13.70;99.90;;;;;;5061312;28;20451;-70
2021/09/03 04:21:40;;;;;;;9.73;6.63;;;13.70;99.90;;;;;;5057743;28;20515;-69
2021/09/03 04:24:08;;;;;;;8.60;6.60;;;13.80;99.90;;;;;;5056951;28;25970;-69
2021/09/03 04:26:35;;;;;;;10.90;6.90;;;13.80;99.90;;;;;;5053784;28;20634;-70
2021/09/03 04:29:02;;;;;;;12.23;7.50;;;13.70;99.90;;;;;;5056674;28;20565;-70
2021/09/03 04:31:30;;;;;;;9.30;6.90;;;13.70;99.90;;;;;;5063086;28;20554;-68
2021/09/03 04:33:57;;;;;;;13.47;8.30;;;13.70;99.90;;;;;;5052018;28;20466;-69
2021/09/03 04:36:24;;;;;;;11.23;7.00;;;13.80;99.90;;;;;;5061317;28;20502;-70
2021/09/03 04:38:51;;;;;;;10.67;8.00;;;13.70;99.90;;;;;;5054723;28;20430;-69
2021/09/03 04:41:18;;;;;;;13.37;8.63;;;13.70;99.90;;;;;;5063532;28;20459;-69
2021/09/03 04:43:45;;;;;;;19.53;8.40;;;13.70;99.90;;;;;;5057779;28;20545;-71
2021/09/03 04:46:12;;;;;;;14.30;9.17;;;13.70;99.90;;;;;;5054225;28;20514;-67
2021/09/03 04:48:40;;;;;;;16.40;7.70;;;13.80;99.90;;;;;;5052378;28;20558;-70
2021/09/03 04:51:07;;;;;;;15.93;8.93;;;13.80;99.90;;;;;;5059081;28;20545;-69
2021/09/03 04:53:34;;;;;;;13.97;8.63;;;13.80;99.90;;;;;;5061512;28;20824;-70
2021/09/03 04:56:01;;;;;;;14.17;9.13;;;13.70;99.90;;;;;;5051871;28;20501;-70
2021/09/03 04:58:28;;;;;;;16.73;10.30;;;13.70;99.90;;;;;;5055428;28;20983;-70
2021/09/03 05:00:55;;;;;;;16.80;8.73;;;13.80;99.90;;;;;;5059564;28;20558;-71
2021/09/03 05:03:22;;;;;;;16.70;8.03;;;13.80;99.90;;;;;;5053220;28;20528;-71
2021/09/03 05:05:50;;;;;;;17.60;8.10;;;13.70;99.90;;;;;;5054224;28;21100;-70
2021/09/03 05:08:17;;;;;;;13.93;7.57;;;13.70;99.90;;;;;;5056309;28;20497;-70
2021/09/03 05:10:44;;;;;;;14.00;7.00;;;13.70;99.90;;;;;;5060504;28;20505;-69
2021/09/03 05:13:11;;;;;;;14.50;9.00;;;13.70;99.90;;;;;;5056996;28;20450;-71
2021/09/03 05:15:41;;;;;;;10.90;7.17;;;13.70;99.90;;;;;;5059545;28;20483;-71
2021/09/03 05:18:08;;;;;;;11.80;7.07;;;13.80;99.90;;;;;;5057581;28;20469;-69
2021/09/03 05:20:35;;;;;;;11.57;7.63;;;13.90;99.90;;;;;;5057951;28;21030;-69
2021/09/03 05:23:04;;;;;;;18.97;8.70;;;13.80;99.90;;;;;;5059100;28;20516;-70
2021/09/03 05:25:31;;;;;;;16.80;9.70;;;13.80;99.90;;;;;;5058481;28;20482;-69
2021/09/03 05:27:58;;;;;;;17.77;9.67;;;13.90;99.90;;;;;;5059698;28;20482;-69
2021/09/03 05:30:25;;;;;;;13.37;9.40;;;13.90;99.90;;;;;;5056612;28;20531;-69
2021/09/03 05:32:52;;;;;;;15.70;10.50;;;14.00;99.90;;;;;;5063725;28;20562;-69
2021/09/03 05:35:20;;;;;;;12.40;8.93;;;14.00;99.90;;;;;;5061394;28;20475;-67
2021/09/03 05:37:47;;;;;;;15.30;9.60;;;14.20;99.90;;;;;;5055397;28;20591;-69
2021/09/03 05:40:15;;;;;;;23.07;13.20;;;14.40;99.90;;;;;;5051654;28;20894;-69
2021/09/03 05:42:42;;;;;;;20.73;10.93;;;14.40;99.90;;;;;;5063665;28;21012;-70
2021/09/03 05:45:10;;;;;;;27.10;11.10;;;14.40;99.90;;;;;;5054828;28;20574;-69
2021/09/03 05:47:42;;;;;;;23.80;12.30;;;14.50;99.90;;;;;;5063500;28;20439;-69
2021/09/03 05:50:10;;;;;;;26.07;13.33;;;14.60;99.90;;;;;;5062690;28;20467;-69
2021/09/03 05:52:37;;;;;;;21.53;13.20;;;14.70;99.90;;;;;;5061511;28;20818;-68
2021/09/03 05:55:05;;;;;;;27.30;11.60;;;14.80;99.90;;;;;;5069344;28;20506;-70
2021/09/03 05:57:33;;;;;;;25.50;11.80;;;14.90;99.90;;;;;;5061498;28;20486;-69
2021/09/03 06:00:00;;;;;;;20.53;11.93;;;14.90;99.90;;;;;;5061085;28;20542;-70
2021/09/03 06:02:28;;;;;;;21.60;10.93;;;15.00;99.90;;;;;;5058682;28;20904;-70
2021/09/03 06:04:55;;;;;;;29.27;12.90;;;15.10;99.90;;;;;;5060630;28;20887;-69
2021/09/03 06:07:22;;;;;;;23.27;12.60;;;15.10;99.90;;;;;;5057490;28;20545;-69
2021/09/03 06:09:49;;;;;;;22.43;12.10;;;15.10;99.90;;;;;;5058844;28;20475;-70
2021/09/03 06:12:16;;;;;;;17.87;11.20;;;15.20;99.90;;;;;;5063456;28;20708;-69
2021/09/03 06:14:44;;;;;;;20.07;11.77;;;15.40;99.90;;;;;;5058020;28;20482;-70
2021/09/03 06:17:12;;;;;;;20.77;12.63;;;15.40;99.90;;;;;;5061372;28;20453;-70
2021/09/03 06:19:39;;;;;;;20.30;14.70;;;15.50;99.90;;;;;;5059800;28;20927;-70
2021/09/03 06:22:06;;;;;;;24.93;12.20;;;15.60;99.90;;;;;;5059381;28;20537;-68
2021/09/03 06:24:35;;;;;;;17.00;11.00;;;15.50;99.90;;;;;;5057898;28;20462;-66
2021/09/03 06:27:03;;;;;;;22.50;10.30;;;15.70;99.90;;;;;;5061745;28;20466;-68
2021/09/03 06:29:41;;;;;;;24.27;10.50;;;15.70;99.90;;;;;;5062207;28;20529;-69
2021/09/03 06:32:11;;;;;;;18.77;12.17;;;15.90;99.90;;;;;;5060429;28;20442;-69
2021/09/03 06:34:39;;;;;;;22.30;11.77;;;16.00;99.90;;;;;;5060007;28;20487;-69
2021/09/03 06:37:07;;;;;;;19.50;11.47;;;16.30;99.90;;;;;;5060441;28;20527;-70
2021/09/03 06:39:34;;;;;;;27.77;10.47;;;16.60;99.90;;;;;;5057906;28;20462;-69
2021/09/03 06:42:02;;;;;;;22.63;13.90;;;17.10;99.90;;;;;;5064642;28;20501;-69
2021/09/03 06:44:29;;;;;;;33.47;11.73;;;17.80;99.90;;;;;;5058212;28;20985;-70
2021/09/03 06:46:56;;;;;;;16.67;10.43;;;18.40;99.90;;;;;;5068695;28;20888;-69
2021/09/03 06:49:24;;;;;;;20.17;10.67;;;18.80;99.90;;;;;;5068060;28;20474;-68
2021/09/03 06:51:51;;;;;;;19.27;11.03;;;19.30;99.90;;;;;;5069306;28;20482;-68
2021/09/03 06:54:18;;;;;;;18.13;10.23;;;20.10;99.90;;;;;;5069558;28;20459;-69
2021/09/03 06:56:45;;;;;;;19.13;11.03;;;20.30;99.90;;;;;;5070070;28;20994;-69
2021/09/03 06:59:12;;;;;;;14.57;10.77;;;20.60;99.90;;;;;;5062543;28;20456;-70
2021/09/03 07:01:39;;;;;;;15.13;11.90;;;20.30;99.90;;;;;;5068997;28;20549;-70
2021/09/03 07:04:06;;;;;;;15.83;11.57;;;20.60;99.90;;;;;;5061875;28;20462;-70
2021/09/03 07:06:34;;;;;;;18.20;10.33;;;21.20;99.90;;;;;;5055218;28;20559;-70
2021/09/03 07:09:04;;;;;;;18.83;11.13;;;21.60;99.90;;;;;;5067687;28;20516;-70
2021/09/03 07:11:31;;;;;;;14.43;10.47;;;22.10;99.90;;;;;;5061358;28;20452;-70
2021/09/03 07:13:58;;;;;;;18.03;10.77;;;22.20;99.90;;;;;;5052734;28;20478;-70
2021/09/03 07:16:25;;;;;;;16.30;11.93;;;22.70;99.90;;;;;;5070043;28;20490;-70
2021/09/03 07:18:52;;;;;;;17.13;11.73;;;23.00;99.90;;;;;;5061760;28;20469;-70
2021/09/03 07:21:19;;;;;;;17.73;12.37;;;23.30;99.90;;;;;;5059599;28;20555;-70
2021/09/03 07:23:47;;;;;;;15.27;10.27;;;23.30;99.90;;;;;;5066463;28;20991;-70
2021/09/03 07:26:14;;;;;;;15.17;10.47;;;22.90;99.90;;;;;;5062508;28;20467;-69
2021/09/03 07:28:41;;;;;;;17.07;11.30;;;22.00;99.90;;;;;;5065856;28;20888;-70
2021/09/03 07:31:09;;;;;;;17.97;12.47;;;20.80;99.90;;;;;;5065363;28;20470;-70
2021/09/03 07:33:36;;;;;;;14.20;9.77;;;20.80;99.90;;;;;;5067059;28;20466;-70
2021/09/03 07:36:03;;;;;;;15.70;11.10;;;20.90;99.90;;;;;;5066032;28;20545;-70
2021/09/03 07:38:30;;;;;;;12.63;9.70;;;21.00;99.90;;;;;;5064845;28;20599;-69
2021/09/03 07:40:59;;;;;;;16.93;12.23;;;21.00;99.90;;;;;;5059574;28;20800;-70
2021/09/03 07:43:26;;;;;;;17.30;11.90;;;20.80;99.90;;;;;;5064585;28;20611;-70
2021/09/03 07:45:54;;;;;;;15.20;12.33;;;21.30;99.90;;;;;;5067528;28;20769;-69
2021/09/03 07:48:21;;;;;;;18.47;13.00;;;21.90;99.90;;;;;;5073865;28;20631;-70
2021/09/03 07:50:48;;;;;;;17.50;10.87;;;22.20;99.90;;;;;;5065890;28;20565;-69
2021/09/03 07:53:15;;;;;;;14.23;10.47;;;22.70;99.90;;;;;;5067204;28;20555;-70
2021/09/03 07:55:42;;;;;;;19.90;11.73;;;23.00;99.90;;;;;;5067399;28;20506;-70
2021/09/03 07:58:10;;;;;;;14.20;10.70;;;23.50;99.90;;;;;;5059909;28;20482;-69
2021/09/03 08:00:38;;;;;;;15.90;11.10;;;24.20;99.90;;;;;;5068008;28;20537;-70
2021/09/03 08:03:05;;;;;;;14.37;11.87;;;24.40;99.90;;;;;;5066333;28;20875;-70
2021/09/03 08:05:32;;;;;;;19.20;11.60;;;24.60;99.90;;;;;;5061405;28;20494;-70
2021/09/03 08:07:59;;;;;;;16.57;10.33;;;25.30;99.90;;;;;;5062531;28;20486;-70
2021/09/03 08:10:29;;;;;;;16.20;10.23;;;25.80;99.90;;;;;;5062531;28;20489;-70
2021/09/03 08:12:56;;;;;;;20.13;10.87;;;26.10;99.90;;;;;;5068227;28;20458;-70
2021/09/03 08:15:24;;;;;;;12.10;10.50;;;26.20;99.90;;;;;;5065046;28;20553;-70
2021/09/03 08:17:51;;;;;;;14.23;10.60;;;26.80;99.90;;;;;;5053771;28;20450;-70
2021/09/03 08:20:18;;;;;;;13.93;11.13;;;27.30;99.90;;;;;;5062697;28;20482;-70
2021/09/03 08:22:47;;;;;;;12.20;10.93;;;26.90;99.90;;;;;;5061640;28;20486;-71
2021/09/03 08:25:15;;;;;;;12.23;9.73;;;27.60;99.90;;;;;;5065567;28;20905;-71
2021/09/03 08:27:42;;;;;;;16.70;10.43;;;27.80;99.90;;;;;;5067924;28;20481;-71
2021/09/03 08:30:09;;;;;;;12.00;10.20;;;28.40;99.90;;;;;;5071188;28;20568;-71
2021/09/03 08:32:37;;;;;;;20.50;10.90;;;28.50;99.90;;;;;;5075088;28;20736;-70
2021/09/03 08:35:05;;;;;;;12.77;9.57;;;28.50;99.90;;;;;;5064297;28;20532;-70
2021/09/03 08:37:32;;;;;;;12.73;9.23;;;28.50;99.90;;;;;;5066365;28;20541;-71
2021/09/03 08:39:59;;;;;;;17.43;10.43;;;28.60;99.90;;;;;;5064736;28;20530;-70
2021/09/03 08:42:27;;;;;;;11.13;10.03;;;28.40;99.90;;;;;;5061474;28;21700;-70
2021/09/03 08:44:55;;;;;;;13.03;10.80;;;28.10;99.90;;;;;;5066880;28;20470;-71
2021/09/03 08:47:23;;;;;;;11.40;10.20;;;28.70;99.90;;;;;;5071426;28;20443;-71
2021/09/03 08:49:51;;;;;;;15.13;10.93;;;29.20;99.90;;;;;;5070859;28;20567;-71
2021/09/03 08:52:18;;;;;;;17.67;12.70;;;29.40;99.90;;;;;;5071252;28;20554;-71
2021/09/03 08:54:46;;;;;;;12.00;10.27;;;29.80;99.90;;;;;;5067300;28;20549;-71
2021/09/03 08:57:14;;;;;;;16.10;12.60;;;30.10;99.90;;;;;;5068884;28;20450;-71
2021/09/03 08:59:41;;;;;;;16.57;11.43;;;30.40;99.90;;;;;;5067895;28;20553;-71
2021/09/03 09:02:10;;;;;;;17.50;13.17;;;30.60;99.90;;;;;;5063771;28;20477;-74
2021/09/03 09:04:42;;;;;;;15.03;12.50;;;30.10;99.90;;;;;;5065310;28;20876;-71
2021/09/03 09:07:11;;;;;;;29.27;11.97;;;30.20;99.90;;;;;;5067903;28;20512;-69
2021/09/03 09:09:41;;;;;;;17.83;12.90;;;30.90;99.90;;;;;;5069855;28;20573;-71
2021/09/03 09:12:11;;;;;;;17.40;11.33;;;31.80;99.90;;;;;;5068873;28;20451;-71
2021/09/03 09:15:04;;;;;;;15.23;12.57;;;32.10;99.90;;;;;;5072536;28;20878;-71
2021/09/03 09:17:33;;;;;;;13.80;11.60;;;32.00;99.90;;;;;;5072878;28;20474;-70
2021/09/03 09:20:00;;;;;;;13.60;12.13;;;31.80;99.90;;;;;;5069937;28;20489;-71
2021/09/03 09:22:29;;;;;;;13.00;10.37;;;31.70;99.90;;;;;;5066668;28;20456;-70
2021/09/03 09:25:21;;;;;;;16.00;11.97;;;31.90;99.90;;;;;;5066381;28;20569;-67
2021/09/03 09:27:49;;;;;;;14.20;12.63;;;32.10;99.90;;;;;;5064816;28;20443;-71
2021/09/03 09:30:25;;;;;;;13.50;10.37;;;32.30;99.90;;;;;;5069993;28;20482;-71
2021/09/03 09:33:12;;;;;;;15.37;11.73;;;32.40;98.70;;;;;;5069680;28;20442;-70
2021/09/03 09:35:45;;;;;;;15.70;11.47;;;31.90;99.80;;;;;;5066909;28;20485;-70
2021/09/03 09:38:15;;;;;;;13.07;10.33;;;32.30;98.60;;;;;;5066958;28;20448;-70
2021/09/03 09:40:48;;;;;;;15.93;10.80;;;33.10;98.90;;;;;;5066015;28;20442;-70
2021/09/03 09:43:30;;;;;;;13.10;10.03;;;33.40;97.30;;;;;;5065229;28;20927;-70
2021/09/03 09:46:21;;;;;;;14.40;11.13;;;33.20;97.60;;;;;;5062721;28;20933;-70
2021/09/03 09:49:03;;;;;;;12.73;11.30;;;33.40;96.90;;;;;;5063360;28;20493;-70
2021/09/03 09:51:33;;;;;;;12.03;9.63;;;34.10;96.20;;;;;;5065412;28;20478;-71
2021/09/03 09:54:03;;;;;;;21.10;12.70;;;35.00;94.40;;;;;;5064508;28;20463;-70
2021/09/03 09:56:32;;;;;;;11.80;8.67;;;35.20;92.10;;;;;;5068697;28;20529;-70
2021/09/03 09:59:01;;;;;;;15.40;10.47;;;34.60;94.20;;;;;;5059237;28;20934;-70
2021/09/03 10:01:29;;;;;;;14.03;10.37;;;34.40;93.90;;;;;;5073983;28;20875;-70
2021/09/03 10:03:56;;;;;;;13.70;9.73;;;34.50;92.70;;;;;;5066634;28;20982;-71
2021/09/03 10:06:29;;;;;;;11.03;9.53;;;34.50;93.70;;;;;;5068245;28;20561;-70
2021/09/03 10:08:58;;;;;;;12.60;9.63;;;33.70;92.60;;;;;;5067329;28;20454;-70
2021/09/03 10:11:27;;;;;;;11.97;9.60;;;33.60;92.40;;;;;;5060646;28;20518;-70
2021/09/03 10:13:55;;;;;;;14.47;9.80;;;33.90;93.40;;;;;;5063548;28;20466;-70
2021/09/03 10:16:22;;;;;;;15.37;9.53;;;33.80;91.70;;;;;;5063268;28;20464;-70
2021/09/03 10:18:54;;;;;;;11.73;8.93;;;34.20;92.20;;;;;;5069325;28;20443;-70
2021/09/03 10:21:23;;;;;;;13.60;8.63;;;34.80;91.30;;;;;;5069359;28;20504;-71
2021/09/03 10:23:55;;;;;;;11.63;9.90;;;35.20;90.50;;;;;;5055727;28;20495;-70
2021/09/03 10:26:26;;;;;;;10.47;8.53;;;35.40;89.00;;;;;;5065124;28;20918;-71
2021/09/03 10:29:23;;;;;;;16.70;7.10;;;35.80;85.30;;;;;;5065651;28;20500;-70
2021/09/03 10:32:18;;;;;;;8.67;7.80;;;35.40;84.30;;;;;;5067030;28;20979;-70
2021/09/03 10:34:54;;;;;;;10.27;8.37;;;35.50;83.10;;;;;;5066684;28;20497;-70
2021/09/03 10:37:25;;;;;;;11.47;8.70;;;35.00;83.70;;;;;;5062985;28;20888;-70
2021/09/03 10:39:54;;;;;;;10.70;6.40;;;35.40;82.50;;;;;;5069175;28;20443;-70
2021/09/03 10:42:53;;;;;;;10.93;8.60;;;35.70;79.70;;;;;;5069467;28;20459;-71
2021/09/03 10:45:24;;;;;;;10.43;8.60;;;35.30;80.10;;;;;;5066838;28;21002;-70
2021/09/03 10:48:00;;;;;;;11.57;7.57;;;36.10;80.10;;;;;;5068524;28;20443;-70
2021/09/03 10:50:30;;;;;;;10.37;7.80;;;36.40;79.40;;;;;;5063427;28;20837;-70
2021/09/03 10:53:35;;;;;;;14.40;8.17;;;36.00;78.80;;;;;;5068476;28;20569;-69
2021/09/03 10:56:27;;;;;;;8.43;7.40;;;35.90;77.30;;;;;;5068184;28;20478;-70
2021/09/03 10:59:11;;;;;;;13.77;6.60;;;35.40;80.80;;;;;;5062881;28;20538;-70
2021/09/03 11:01:53;;;;;;;9.90;6.27;;;36.30;77.30;;;;;;5065175;28;20458;-70
2021/09/03 11:04:25;;;;;;;8.00;6.70;;;36.50;73.90;;;;;;5065735;28;20458;-71
2021/09/03 11:07:12;;;;;;;7.53;5.43;;;36.70;73.50;;;;;;5066380;28;20500;-70
2021/09/03 11:09:45;;;;;;;8.77;6.03;;;36.60;73.40;;;;;;5068942;28;20438;-71
2021/09/03 11:12:15;;;;;;;7.23;6.17;;;36.60;71.20;;;;;;5068753;28;20851;-71
2021/09/03 11:14:44;;;;;;;6.47;5.53;;;36.90;68.40;;;;;;5064082;28;20469;-70
2021/09/03 11:17:12;;;;;;;5.93;5.33;;;36.50;69.90;;;;;;5066223;28;20489;-71
2021/09/03 11:19:40;;;;;;;15.67;6.40;;;36.80;72.10;;;;;;5065851;28;20496;-70
2021/09/03 11:22:08;;;;;;;7.13;6.30;;;37.20;70.70;;;;;;5059711;28;20505;-71
2021/09/03 11:24:37;;;;;;;16.93;7.50;;;37.30;69.70;;;;;;5054681;28;21027;-70
2021/09/03 11:27:06;;;;;;;11.73;7.60;;;38.00;68.70;;;;;;5052982;28;20542;-70
2021/09/03 11:29:35;;;;;;;12.13;8.50;;;37.90;67.70;;;;;;5052745;28;20531;-70
2021/09/03 11:32:08;;;;;;;7.97;6.70;;;38.50;65.50;;;;;;5054501;28;20510;-70
2021/09/03 11:34:56;;;;;;;7.73;6.93;;;38.80;64.30;;;;;;5060930;28;20584;-68
2021/09/03 11:37:32;;;;;;;7.63;6.80;;;38.70;64.20;;;;;;5053283;28;20520;-70
2021/09/03 11:40:11;;;;;;;7.07;6.37;;;38.00;64.60;;;;;;5059041;28;20458;-72
2021/09/03 11:42:40;;;;;;;9.57;7.17;;;38.40;65.10;;;;;;5058888;28;20545;-69
2021/09/03 11:45:09;;;;;;;8.00;5.80;;;38.30;61.00;;;;;;5060938;28;20911;-70
2021/09/03 11:47:40;;;;;;;12.83;7.37;;;38.20;62.80;;;;;;5056227;28;20824;-72
2021/09/03 11:50:11;;;;;;;9.10;7.20;;;38.00;62.90;;;;;;5061264;28;20554;-70
2021/09/03 11:52:39;;;;;;;10.73;6.43;;;37.90;63.40;;;;;;5061813;28;20438;-71
2021/09/03 11:55:08;;;;;;;7.87;6.23;;;37.20;66.40;;;;;;5063486;28;20537;-70
2021/09/03 11:57:53;;;;;;;7.90;6.93;;;37.00;63.70;;;;;;5067735;28;20526;-70
2021/09/03 12:00:20;;;;;;;11.13;6.50;;;37.40;64.30;;;;;;5064183;28;20545;-72
2021/09/03 12:02:50;;;;;;;8.60;6.23;;;37.00;64.50;;;;;;5068063;28;20881;-70
2021/09/03 12:05:18;;;;;;;10.27;6.17;;;37.60;64.30;;;;;;5070111;28;20490;-71
2021/09/03 12:08:01;;;;;;;8.23;5.60;;;38.00;63.40;;;;;;5067116;28;20471;-71
2021/09/03 12:10:33;;;;;;;9.00;6.77;;;37.70;60.80;;;;;;5070650;28;20803;-66
2021/09/03 12:13:09;;;;;;;9.87;6.10;;;37.70;63.00;;;;;;5061017;28;20530;-70
2021/09/03 12:15:37;;;;;;;6.87;6.17;;;38.10;60.60;;;;;;5069821;28;21085;-71
2021/09/03 12:18:18;;;;;;;6.20;5.30;;;38.40;60.90;;;;;;5067011;28;20513;-71
2021/09/03 12:20:49;;;;;;;7.20;5.80;;;39.00;60.20;;;;;;5064424;28;20588;-73
2021/09/03 12:23:16;;;;;;;8.00;5.50;;;37.30;59.20;;;;;;5059081;28;20644;-69
2021/09/03 12:25:43;;;;;;;11.93;6.43;;;36.60;64.50;;;;;;5070922;28;20488;-70
2021/09/03 12:28:13;;;;;;;7.57;6.10;;;37.10;61.40;;;;;;5066397;28;20452;-70
2021/09/03 12:30:41;;;;;;;6.60;5.27;;;37.20;60.20;;;;;;5068120;28;20905;-69
2021/09/03 12:33:26;;;;;;;8.73;6.07;;;37.70;59.80;;;;;;5068373;28;20529;-70
2021/09/03 12:35:55;;;;;;;7.43;4.57;;;37.60;58.80;;;;;;5056224;28;20580;-71
2021/09/03 12:38:34;;;;;;;8.87;7.07;;;37.30;59.90;;;;;;5063574;28;20458;-70
2021/09/03 12:41:06;;;;;;;8.90;6.70;;;37.80;59.10;;;;;;5056922;28;20530;-71
2021/09/03 12:43:34;;;;;;;5.53;5.00;;;38.60;59.10;;;;;;5057739;28;20498;-70
2021/09/03 12:46:07;;;;;;;7.30;5.77;;;38.70;59.30;;;;;;5069797;28;20645;-70